Time;durP1;ratioP1;P1;durP2;ratioP2;P2;SDS_P1;SDS_P2;PMS_P1;PMS_P2;Temp;Humidity;BMP_temperature;BMP_pressure;BME280_temperature;BME280_humidity;BME280_pressure;Samples;Min_cycle;Max_cycle;Signal;HPM_P1;HPM_P2
2023/03/24 00:00:22;;;;;;;12.90;4.10;;;12.00;65.80;;;;;;5011226;28;20049;-79
2023/03/24 00:02:50;;;;;;;9.80;2.95;;;11.90;65.60;;;;;;5022729;28;20122;-77
2023/03/24 00:05:19;;;;;;;10.25;3.25;;;11.90;65.60;;;;;;5018461;28;20025;-79
2023/03/24 00:07:46;;;;;;;8.70;2.58;;;11.80;65.50;;;;;;5016047;28;20071;-78
2023/03/24 00:10:16;;;;;;;11.98;2.97;;;11.90;65.70;;;;;;5025685;28;20029;-78
2023/03/24 00:12:46;;;;;;;12.93;3.45;;;11.80;65.60;;;;;;5019964;28;20128;-77
2023/03/24 00:15:20;;;;;;;11.02;3.13;;;11.70;65.40;;;;;;5005986;28;20033;-81
2023/03/24 00:17:49;;;;;;;8.73;3.40;;;11.70;65.50;;;;;;5033873;28;20041;-79
2023/03/24 00:20:19;;;;;;;12.30;3.75;;;11.70;65.50;;;;;;5032385;28;20026;-78
2023/03/24 00:22:49;;;;;;;7.50;2.63;;;11.70;65.60;;;;;;5020377;28;20296;-80
2023/03/24 00:25:19;;;;;;;13.07;2.67;;;11.70;65.60;;;;;;5035792;28;20037;-81
2023/03/24 00:27:47;;;;;;;10.40;3.22;;;11.60;65.50;;;;;;5036796;28;20037;-80
2023/03/24 00:30:16;;;;;;;11.98;3.63;;;11.60;65.50;;;;;;5036967;28;20029;-80
2023/03/24 00:32:43;;;;;;;10.60;3.83;;;11.50;65.40;;;;;;5026536;28;20045;-80
2023/03/24 00:35:11;;;;;;;9.85;2.38;;;11.50;65.40;;;;;;5032095;28;20052;-79
2023/03/24 00:37:41;;;;;;;13.32;3.25;;;11.50;65.40;;;;;;5012565;28;20049;-80
2023/03/24 00:40:12;;;;;;;10.30;3.67;;;11.40;65.30;;;;;;5023860;28;20044;-81
2023/03/24 00:42:40;;;;;;;13.23;3.42;;;11.40;65.30;;;;;;5005683;28;20353;-79
2023/03/24 00:45:08;;;;;;;13.43;3.45;;;11.40;65.40;;;;;;5023083;28;20385;-78
2023/03/24 00:47:36;;;;;;;10.10;2.72;;;11.30;65.20;;;;;;5022147;28;20049;-79
2023/03/24 00:50:08;;;;;;;12.85;3.63;;;11.30;65.30;;;;;;5021083;28;20389;-79
2023/03/24 00:52:34;;;;;;;8.73;2.75;;;11.20;65.20;;;;;;5019577;28;20053;-78
2023/03/24 00:55:05;;;;;;;9.77;3.65;;;11.20;65.20;;;;;;5022492;28;20025;-79
2023/03/24 00:57:35;;;;;;;8.18;2.90;;;11.20;65.20;;;;;;5019710;28;20337;-79
2023/03/24 01:00:15;;;;;;;12.65;4.32;;;11.10;65.10;;;;;;5022117;28;20113;-78
2023/03/24 01:02:45;;;;;;;10.68;2.80;;;11.10;65.20;;;;;;5034278;28;20068;-80
2023/03/24 01:05:13;;;;;;;9.43;2.60;;;11.10;65.20;;;;;;5021636;28;20277;-78
2023/03/24 01:07:42;;;;;;;13.63;3.08;;;11.00;65.10;;;;;;5005554;28;20067;-79
2023/03/24 01:10:12;;;;;;;8.00;2.80;;;11.00;65.10;;;;;;5008534;28;20041;-79
2023/03/24 01:12:38;;;;;;;11.30;2.80;;;10.90;65.00;;;;;;5014889;28;20477;-79
2023/03/24 01:15:10;;;;;;;10.00;2.88;;;10.90;65.10;;;;;;5021953;28;20120;-79
2023/03/24 01:17:36;;;;;;;10.18;2.70;;;10.90;65.10;;;;;;5020071;28;20048;-80
2023/03/24 01:20:07;;;;;;;8.40;2.78;;;10.90;65.10;;;;;;5024188;28;20029;-81
2023/03/24 01:22:38;;;;;;;8.23;2.80;;;10.80;65.00;;;;;;5018654;28;20481;-79
2023/03/24 01:25:08;;;;;;;10.55;3.35;;;10.80;65.10;;;;;;5022490;28;20041;-79
2023/03/24 01:27:36;;;;;;;8.65;2.50;;;10.80;65.10;;;;;;5020820;28;20029;-79
2023/03/24 01:30:04;;;;;;;10.27;4.53;;;10.80;65.10;;;;;;5019255;28;20309;-79
2023/03/24 01:32:31;;;;;;;11.10;2.90;;;10.80;65.10;;;;;;5021350;28;20048;-81
2023/03/24 01:34:57;;;;;;;10.57;2.75;;;10.70;65.00;;;;;;5019331;28;20563;-81
2023/03/24 01:37:26;;;;;;;10.43;3.90;;;10.70;65.00;;;;;;5017311;28;20068;-80
2023/03/24 01:39:52;;;;;;;12.18;3.67;;;10.70;65.10;;;;;;5023776;28;20492;-79
2023/03/24 01:42:21;;;;;;;11.95;2.72;;;10.60;64.90;;;;;;5022430;28;20068;-80
2023/03/24 01:44:50;;;;;;;10.82;3.58;;;10.60;65.00;;;;;;5024130;28;20477;-80
2023/03/24 01:47:16;;;;;;;10.75;3.33;;;10.60;65.00;;;;;;5020776;28;20107;-79
2023/03/24 01:49:51;;;;;;;16.30;2.88;;;10.60;65.10;;;;;;5003806;28;20030;-77
2023/03/24 01:52:22;;;;;;;14.88;3.40;;;10.50;64.90;;;;;;5003351;28;20038;-79
2023/03/24 01:54:54;;;;;;;11.70;2.55;;;10.50;65.10;;;;;;5013131;28;20477;-78
2023/03/24 01:57:52;;;;;;;14.07;4.32;;;10.50;65.30;;;;;;5002672;28;20049;-78
2023/03/24 02:00:25;;;;;;;10.93;2.42;;;10.50;65.40;;;;;;4999756;28;20056;-77
2023/03/24 02:03:29;;;;;;;11.68;3.00;;;10.50;65.40;;;;;;5003671;28;20305;-79
2023/03/24 02:06:01;;;;;;;13.57;2.42;;;10.50;65.40;;;;;;5005004;28;20075;-78
2023/03/24 02:08:51;;;;;;;8.93;2.35;;;10.40;65.20;;;;;;5010907;28;20433;-78
2023/03/24 02:11:19;;;;;;;7.28;2.47;;;10.40;65.40;;;;;;5018294;28;20049;-80
2023/03/24 02:13:55;;;;;;;11.60;2.25;;;10.40;65.30;;;;;;5004996;28;20061;-77
2023/03/24 02:16:44;;;;;;;11.15;2.53;;;10.40;65.30;;;;;;5001790;28;20032;-77
2023/03/24 02:19:25;;;;;;;6.60;2.30;;;10.40;65.50;;;;;;4997411;28;20040;-78
2023/03/24 02:22:39;;;;;;;9.65;2.33;;;10.30;65.30;;;;;;5001390;28;20198;-79
2023/03/24 02:25:50;;;;;;;14.63;2.78;;;10.30;65.30;;;;;;4999916;28;20108;-79
2023/03/24 02:28:19;;;;;;;12.65;3.30;;;10.30;65.30;;;;;;4991905;28;20044;-77
2023/03/24 02:31:23;;;;;;;16.02;3.10;;;10.30;65.30;;;;;;5004302;28;20099;-79
2023/03/24 02:34:29;;;;;;;12.57;3.20;;;10.20;65.20;;;;;;5010604;28;20100;-78
2023/03/24 02:37:26;;;;;;;8.05;2.50;;;10.20;65.20;;;;;;4989627;28;20070;-77
2023/03/24 02:40:22;;;;;;;10.48;2.90;;;10.20;65.20;;;;;;5003518;28;20047;-78
2023/03/24 02:43:27;;;;;;;8.82;2.03;;;10.20;65.30;;;;;;4991127;28;20458;-78
2023/03/24 02:46:12;;;;;;;14.43;2.88;;;10.10;65.10;;;;;;4990754;28;20053;-77
2023/03/24 02:49:11;;;;;;;12.13;3.00;;;10.10;65.10;;;;;;5025288;28;20041;-79
2023/03/24 02:52:24;;;;;;;11.52;2.58;;;10.10;65.20;;;;;;5008490;28;20072;-77
2023/03/24 02:55:01;;;;;;;7.63;2.17;;;10.10;65.20;;;;;;4951024;28;20039;-78
2023/03/24 02:57:27;;;;;;;11.85;2.72;;;10.10;65.20;;;;;;5014867;28;20037;-78
2023/03/24 03:00:27;;;;;;;9.50;2.13;;;10.00;65.00;;;;;;5028752;28;20037;-78
2023/03/24 03:03:33;;;;;;;9.18;2.45;;;10.00;65.10;;;;;;5028200;28;20041;-77
2023/03/24 03:06:06;;;;;;;9.40;2.65;;;10.00;65.10;;;;;;5009644;28;20029;-78
2023/03/24 03:08:35;;;;;;;5.97;2.30;;;10.00;65.10;;;;;;5032975;28;20028;-77
2023/03/24 03:11:05;;;;;;;14.40;2.35;;;10.00;65.10;;;;;;5017340;28;20598;-77
2023/03/24 03:14:01;;;;;;;11.35;3.50;;;10.00;65.10;;;;;;4998296;28;20049;-78
2023/03/24 03:16:37;;;;;;;9.70;2.30;;;10.00;65.20;;;;;;5025170;28;20107;-77
2023/03/24 03:19:24;;;;;;;10.18;2.50;;;10.00;65.20;;;;;;5021114;28;20558;-77
2023/03/24 03:21:52;;;;;;;7.78;2.63;;;9.90;65.00;;;;;;5008700;28;20080;-77
2023/03/24 03:24:31;;;;;;;8.35;2.33;;;9.90;65.00;;;;;;5012458;28;20037;-77
2023/03/24 03:27:07;;;;;;;8.93;2.95;;;9.90;65.10;;;;;;4993066;28;20038;-78
2023/03/24 03:29:42;;;;;;;8.77;2.03;;;9.90;65.10;;;;;;5013560;28;20169;-78
2023/03/24 03:32:13;;;;;;;6.60;3.00;;;9.90;65.10;;;;;;4998345;28;20150;-78
2023/03/24 03:34:53;;;;;;;9.38;1.95;;;9.90;65.10;;;;;;5027417;28;20029;-78
2023/03/24 03:37:44;;;;;;;12.25;3.42;;;9.80;65.00;;;;;;5008649;28;20393;-76
2023/03/24 03:40:19;;;;;;;9.52;3.70;;;9.80;65.00;;;;;;5023838;28;20039;-77
2023/03/24 03:42:51;;;;;;;7.90;2.10;;;9.80;65.00;;;;;;5019701;28;20109;-77
2023/03/24 03:45:17;;;;;;;7.55;1.77;;;9.80;65.00;;;;;;4992666;28;20069;-78
2023/03/24 03:47:44;;;;;;;11.43;2.72;;;9.70;64.90;;;;;;5019895;28;20045;-78
2023/03/24 03:50:12;;;;;;;7.47;1.95;;;9.80;65.10;;;;;;5025955;28;20052;-78
2023/03/24 03:52:40;;;;;;;8.57;2.05;;;9.80;65.10;;;;;;5024756;28;20052;-78
2023/03/24 03:55:10;;;;;;;12.40;2.85;;;9.70;65.00;;;;;;5027472;28;20037;-79
2023/03/24 03:57:40;;;;;;;7.65;2.20;;;9.70;65.00;;;;;;5025674;28;20059;-78
2023/03/24 04:00:19;;;;;;;11.20;2.60;;;9.70;65.00;;;;;;5025341;28;20029;-78
2023/03/24 04:03:13;;;;;;;12.60;3.00;;;9.70;65.00;;;;;;5021148;28;20044;-76
2023/03/24 04:05:45;;;;;;;8.65;2.55;;;9.70;65.00;;;;;;5026801;28;20484;-78
2023/03/24 04:08:32;;;;;;;6.35;2.10;;;9.70;65.00;;;;;;5027776;28;20075;-79
2023/03/24 04:11:47;;;;;;;9.45;2.25;;;9.70;65.00;;;;;;5021510;28;20457;-80
2023/03/24 04:14:59;;;;;;;10.07;2.42;;;9.60;64.80;;;;;;5021440;28;20156;-78
2023/03/24 04:17:57;;;;;;;10.70;2.10;;;9.60;64.80;;;;;;5024027;28;20425;-80
2023/03/24 04:21:01;;;;;;;7.95;2.05;;;9.60;64.90;;;;;;5023337;28;20048;-77
2023/03/24 04:23:49;;;;;;;9.48;2.20;;;9.50;64.70;;;;;;5021816;28;20482;-77
2023/03/24 04:26:41;;;;;;;8.25;2.47;;;9.50;64.70;;;;;;5004042;28;20049;-78
2023/03/24 04:29:16;;;;;;;8.30;2.83;;;9.50;64.80;;;;;;5025142;28;20570;-78
2023/03/24 04:32:07;;;;;;;11.80;2.05;;;9.50;64.80;;;;;;5025055;28;20092;-77
2023/03/24 04:34:40;;;;;;;9.10;2.50;;;9.50;64.80;;;;;;5024083;28;20079;-78
2023/03/24 04:37:22;;;;;;;7.43;2.10;;;9.50;65.40;;;;;;5021433;28;20120;-78
2023/03/24 04:40:10;;;;;;;11.13;2.90;;;9.50;64.90;;;;;;5026664;28;20413;-78
2023/03/24 04:42:52;;;;;;;9.55;3.17;;;9.40;64.70;;;;;;5025825;28;20064;-77
2023/03/24 04:45:24;;;;;;;5.85;1.67;;;9.40;64.80;;;;;;5024313;28;20033;-77
2023/03/24 04:48:07;;;;;;;7.68;2.10;;;9.40;64.80;;;;;;5022891;28;20137;-78
2023/03/24 04:50:48;;;;;;;10.20;2.17;;;9.40;65.30;;;;;;5006470;28;20026;-79
2023/03/24 04:53:18;;;;;;;9.23;2.50;;;9.40;64.80;;;;;;5025378;28;20041;-78
2023/03/24 04:56:26;;;;;;;7.38;1.98;;;9.40;64.80;;;;;;5002014;28;20026;-78
2023/03/24 04:59:06;;;;;;;11.93;2.03;;;9.40;64.80;;;;;;5008519;28;20069;-78
2023/03/24 05:01:36;;;;;;;8.93;2.70;;;9.40;64.70;;;;;;5008435;28;20034;-77
2023/03/24 05:04:25;;;;;;;8.32;1.90;;;9.40;64.70;;;;;;5011049;28;20025;-79
2023/03/24 05:06:53;;;;;;;10.10;2.28;;;9.40;64.70;;;;;;4991455;28;20026;-79
2023/03/24 05:09:24;;;;;;;8.85;2.05;;;9.40;64.80;;;;;;5021405;28;20085;-79
2023/03/24 05:11:51;;;;;;;9.63;2.03;;;9.40;64.80;;;;;;5006293;28;20065;-78
2023/03/24 05:14:17;;;;;;;10.63;2.70;;;9.30;64.60;;;;;;5000643;28;20079;-78
2023/03/24 05:16:44;;;;;;;9.85;2.25;;;9.40;64.80;;;;;;5008896;28;20554;-79
2023/03/24 05:19:10;;;;;;;8.60;2.10;;;9.30;64.70;;;;;;5011750;28;20026;-78
2023/03/24 05:21:37;;;;;;;11.43;2.17;;;9.30;64.70;;;;;;5006638;28;20046;-78
2023/03/24 05:24:05;;;;;;;13.93;2.83;;;9.30;64.70;;;;;;5007038;28;20061;-77
2023/03/24 05:26:34;;;;;;;16.80;2.80;;;9.30;64.70;;;;;;5007452;28;20120;-77
2023/03/24 05:29:09;;;;;;;10.80;2.83;;;9.30;64.80;;;;;;5007354;28;20029;-78
2023/03/24 05:31:35;;;;;;;5.25;2.13;;;9.30;65.30;;;;;;5025997;28;20072;-78
2023/03/24 05:34:07;;;;;;;7.47;2.30;;;9.30;64.80;;;;;;5007550;28;20041;-77
2023/03/24 05:36:43;;;;;;;9.60;1.75;;;9.30;64.80;;;;;;5003455;28;20444;-76
2023/03/24 05:39:10;;;;;;;7.70;2.10;;;9.30;64.80;;;;;;5006357;28;20108;-77
2023/03/24 05:41:46;;;;;;;10.07;2.30;;;9.30;64.90;;;;;;5005257;28;20030;-77
2023/03/24 05:44:12;;;;;;;10.75;2.38;;;9.30;64.90;;;;;;5012042;28;20548;-77
2023/03/24 05:46:40;;;;;;;8.75;2.22;;;9.30;64.90;;;;;;5007632;28;20045;-78
2023/03/24 05:49:06;;;;;;;5.40;1.85;;;9.30;64.90;;;;;;5003928;28;20113;-76
2023/03/24 05:51:36;;;;;;;12.23;4.07;;;9.30;65.50;;;;;;5000009;28;20409;-77
2023/03/24 05:54:06;;;;;;;12.18;2.60;;;9.30;65.00;;;;;;5005131;28;20089;-78
2023/03/24 05:56:44;;;;;;;7.35;1.73;;;9.30;65.00;;;;;;4995713;28;20091;-77
2023/03/24 05:59:13;;;;;;;5.75;1.65;;;9.30;65.00;;;;;;5029940;28;20116;-77
2023/03/24 06:01:57;;;;;;;6.55;2.17;;;9.30;65.00;;;;;;5028070;28;20482;-76
2023/03/24 06:04:47;;;;;;;11.05;2.72;;;9.30;65.00;;;;;;5006218;28;20037;-78
2023/03/24 06:07:21;;;;;;;9.20;2.17;;;9.30;64.90;;;;;;5012049;28;20083;-77
2023/03/24 06:09:51;;;;;;;12.05;2.58;;;9.30;65.00;;;;;;5012343;28;20032;-78
2023/03/24 06:12:20;;;;;;;10.48;2.50;;;9.30;65.00;;;;;;5008805;28;20042;-77
2023/03/24 06:15:02;;;;;;;11.37;2.43;;;9.30;65.00;;;;;;5004995;28;20397;-78
2023/03/24 06:17:31;;;;;;;10.23;2.65;;;9.30;65.00;;;;;;5010592;28;20263;-78
2023/03/24 06:20:07;;;;;;;;;;;9.30;65.00;;;;;;5011221;28;20040;-78
2023/03/24 06:22:44;;;;;;;8.38;2.58;;;9.30;65.00;;;;;;5022035;28;19913;-79
2023/03/24 06:25:15;;;;;;;9.73;1.98;;;9.30;64.80;;;;;;5014271;28;20485;-77
2023/03/24 06:27:50;;;;;;;7.47;2.05;;;9.30;64.80;;;;;;5014164;28;20048;-83
2023/03/24 06:30:21;;;;;;;8.02;2.33;;;9.40;65.10;;;;;;5014513;28;20056;-80
2023/03/24 06:32:47;;;;;;;10.90;2.53;;;9.30;64.90;;;;;;5026899;28;20125;-78
2023/03/24 06:35:16;;;;;;;9.35;2.78;;;9.40;65.10;;;;;;5026448;28;20037;-79
2023/03/24 06:37:50;;;;;;;13.80;3.03;;;9.40;65.10;;;;;;5025319;28;20037;-78
2023/03/24 06:40:16;;;;;;;10.20;2.38;;;9.50;65.20;;;;;;5024629;28;20269;-77
2023/03/24 06:42:52;;;;;;;6.80;1.60;;;9.40;65.10;;;;;;5028465;28;20046;-78
2023/03/24 06:45:19;;;;;;;6.95;2.22;;;9.50;65.10;;;;;;5024484;28;20123;-77
2023/03/24 06:47:56;;;;;;;10.60;2.35;;;9.50;65.10;;;;;;5012791;28;20053;-80
2023/03/24 06:50:29;;;;;;;8.48;2.05;;;9.60;65.80;;;;;;5030246;28;20041;-79
2023/03/24 06:52:55;;;;;;;13.40;2.17;;;9.70;65.30;;;;;;5011424;28;21424;-77
2023/03/24 06:55:22;;;;;;;12.68;3.47;;;9.70;65.40;;;;;;5012922;28;20721;-78
2023/03/24 06:57:51;;;;;;;10.30;2.45;;;9.80;66.00;;;;;;5009298;28;20091;-78
2023/03/24 07:00:29;;;;;;;8.77;2.88;;;9.90;66.30;;;;;;5024526;28;20032;-79
2023/03/24 07:03:25;;;;;;;10.00;2.13;;;10.00;66.40;;;;;;4983110;28;20057;-78
2023/03/24 07:06:14;;;;;;;9.85;2.47;;;10.10;66.40;;;;;;5021655;28;20041;-77
2023/03/24 07:08:43;;;;;;;8.32;2.55;;;10.20;66.50;;;;;;5005079;28;20037;-77
2023/03/24 07:11:11;;;;;;;7.00;1.90;;;10.30;66.60;;;;;;5005391;28;20588;-78
2023/03/24 07:13:41;;;;;;;13.18;2.92;;;10.40;66.60;;;;;;4992181;28;20053;-79
2023/03/24 07:16:07;;;;;;;10.23;2.30;;;10.60;66.70;;;;;;5007227;28;20404;-78
2023/03/24 07:18:36;;;;;;;6.90;2.17;;;10.70;66.50;;;;;;5005614;28;20056;-78
2023/03/24 07:21:06;;;;;;;12.50;2.83;;;10.90;66.60;;;;;;5004935;28;20570;-78
2023/03/24 07:23:33;;;;;;;8.13;2.85;;;11.00;66.60;;;;;;5014177;28;20380;-79
2023/03/24 07:26:06;;;;;;;10.70;2.67;;;11.10;67.00;;;;;;5003379;28;20488;-79
2023/03/24 07:28:49;;;;;;;8.40;2.85;;;11.20;67.30;;;;;;5019542;28;20040;-78
2023/03/24 07:31:37;;;;;;;13.70;2.45;;;11.30;67.30;;;;;;5006092;28;20057;-79
2023/03/24 07:34:07;;;;;;;10.38;2.50;;;11.40;67.30;;;;;;5013311;28;20029;-78
2023/03/24 07:36:35;;;;;;;12.23;3.58;;;11.40;67.20;;;;;;5006812;28;20029;-78
2023/03/24 07:39:04;;;;;;;17.20;2.80;;;11.50;67.30;;;;;;5007251;28;20320;-79
2023/03/24 07:41:33;;;;;;;10.60;3.38;;;11.50;67.30;;;;;;4999905;28;20350;-77
2023/03/24 07:44:04;;;;;;;9.48;3.05;;;11.60;67.60;;;;;;5008472;28;20122;-78
2023/03/24 07:46:33;;;;;;;7.70;2.33;;;11.70;68.00;;;;;;5028469;28;20085;-79
2023/03/24 07:48:59;;;;;;;13.73;2.53;;;11.80;68.30;;;;;;5010629;28;20459;-79
2023/03/24 07:51:26;;;;;;;13.80;3.45;;;11.90;68.40;;;;;;5004090;28;20111;-79
2023/03/24 07:54:01;;;;;;;11.57;2.42;;;12.10;68.80;;;;;;5017833;28;20666;-80
2023/03/24 07:56:39;;;;;;;10.88;2.60;;;12.30;68.90;;;;;;5006928;28;20036;-82
2023/03/24 07:59:08;;;;;;;14.75;3.10;;;12.40;69.00;;;;;;5012577;28;20116;-80
2023/03/24 08:01:49;;;;;;;15.10;3.22;;;12.50;69.00;;;;;;5030249;28;20048;-80
2023/03/24 08:04:19;;;;;;;13.18;3.63;;;12.60;69.10;;;;;;5009413;28;20033;-79
2023/03/24 08:06:56;;;;;;;12.68;2.60;;;12.70;69.10;;;;;;5002324;28;20068;-79
2023/03/24 08:09:23;;;;;;;11.55;2.33;;;12.80;69.20;;;;;;5021234;28;20047;-80
2023/03/24 08:11:48;;;;;;;11.88;2.47;;;12.90;69.30;;;;;;5032063;28;20049;-79
2023/03/24 08:14:14;;;;;;;9.00;3.00;;;13.00;69.40;;;;;;5003999;28;20120;-79
2023/03/24 08:16:41;;;;;;;17.55;3.38;;;13.10;69.60;;;;;;5014014;28;20036;-79
2023/03/24 08:19:07;;;;;;;9.00;2.17;;;13.10;69.60;;;;;;5008908;28;20049;-79
2023/03/24 08:21:34;;;;;;;11.43;2.58;;;13.20;69.70;;;;;;5020090;28;20022;-79
2023/03/24 08:24:00;;;;;;;11.15;2.58;;;13.20;69.70;;;;;;5020849;28;20044;-78
2023/03/24 08:26:26;;;;;;;9.05;3.60;;;13.30;69.90;;;;;;4991943;28;20045;-80
2023/03/24 08:28:52;;;;;;;6.50;1.88;;;13.40;70.00;;;;;;4994118;28;20419;-78
2023/03/24 08:31:20;;;;;;;10.80;2.17;;;13.40;69.90;;;;;;5011761;28;20059;-80
2023/03/24 08:33:46;;;;;;;9.55;2.05;;;13.50;70.10;;;;;;5010367;28;20038;-78
2023/03/24 08:36:14;;;;;;;10.95;2.30;;;13.60;70.20;;;;;;5020950;28;20067;-78
2023/03/24 08:38:40;;;;;;;12.32;4.03;;;13.70;70.30;;;;;;5021672;28;20065;-80
2023/03/24 08:41:09;;;;;;;13.80;2.72;;;13.70;70.20;;;;;;5009394;28;20056;-78
2023/03/24 08:43:38;;;;;;;12.00;2.15;;;13.80;70.20;;;;;;5007806;28;20037;-79
2023/03/24 08:46:08;;;;;;;9.40;2.50;;;13.90;70.30;;;;;;5021033;28;20103;-79
2023/03/24 08:48:36;;;;;;;8.90;2.75;;;13.90;70.20;;;;;;5025574;28;20523;-79
2023/03/24 08:51:16;;;;;;;6.90;1.70;;;14.00;70.20;;;;;;5005402;28;20121;-80
2023/03/24 08:53:43;;;;;;;9.30;2.92;;;14.10;70.40;;;;;;5029942;28;20037;-78
2023/03/24 08:56:09;;;;;;;11.40;3.40;;;14.30;70.40;;;;;;5020757;28;20214;-79
2023/03/24 08:58:35;;;;;;;10.50;3.10;;;14.40;70.20;;;;;;5027135;28;20060;-80
2023/03/24 09:01:03;;;;;;;11.20;3.55;;;14.60;70.20;;;;;;5017600;28;20034;-79
2023/03/24 09:03:29;;;;;;;8.57;2.65;;;14.80;70.30;;;;;;5019051;28;20520;-79
2023/03/24 09:05:56;;;;;;;8.70;2.40;;;14.90;70.10;;;;;;5019502;28;20072;-79
2023/03/24 09:08:22;;;;;;;7.82;2.30;;;14.90;69.90;;;;;;5008666;28;20091;-79
2023/03/24 09:10:50;;;;;;;10.52;2.88;;;14.90;69.70;;;;;;5001442;28;20021;-77
2023/03/24 09:13:18;;;;;;;9.43;2.78;;;15.00;69.80;;;;;;4999509;28;20508;-79
2023/03/24 09:15:50;;;;;;;8.05;2.67;;;15.00;69.80;;;;;;5003289;28;20439;-78
2023/03/24 09:18:16;;;;;;;12.50;3.03;;;15.00;69.70;;;;;;5021118;28;20415;-80
2023/03/24 09:20:44;;;;;;;9.30;3.80;;;15.00;69.70;;;;;;5015521;28;20105;-79
2023/03/24 09:23:12;;;;;;;7.38;2.92;;;15.10;69.90;;;;;;5021629;28;20116;-79
2023/03/24 09:25:39;;;;;;;8.30;2.03;;;15.10;69.80;;;;;;5019005;28;20037;-77
2023/03/24 09:28:07;;;;;;;7.38;2.22;;;15.10;69.70;;;;;;5005289;28;20100;-79
2023/03/24 09:30:34;;;;;;;9.93;1.95;;;15.20;69.90;;;;;;5001103;28;20329;-78
2023/03/24 09:33:00;;;;;;;6.45;2.10;;;15.20;69.70;;;;;;4998019;28;20069;-78
2023/03/24 09:35:26;;;;;;;8.52;1.67;;;15.30;69.80;;;;;;5003981;28;20029;-79
2023/03/24 09:37:53;;;;;;;7.60;3.03;;;15.30;69.60;;;;;;5019537;28;20085;-78
2023/03/24 09:40:24;;;;;;;9.10;2.67;;;15.40;69.50;;;;;;5027604;28;20103;-77
2023/03/24 09:43:34;;;;;;;6.35;2.75;;;15.50;69.40;;;;;;5019016;28;20049;-78
2023/03/24 09:46:10;;;;;;;8.98;2.67;;;15.60;69.30;;;;;;5000786;28;20427;-79
2023/03/24 09:48:50;;;;;;;6.20;1.77;;;15.60;69.10;;;;;;5005969;28;20037;-80
2023/03/24 09:51:25;;;;;;;9.38;2.25;;;15.70;69.10;;;;;;5018048;28;20043;-79
2023/03/24 09:53:56;;;;;;;6.90;1.90;;;15.70;68.90;;;;;;5022290;28;20707;-78
2023/03/24 09:56:24;;;;;;;8.23;2.15;;;15.80;68.90;;;;;;5004863;28;20272;-80
2023/03/24 09:59:01;;;;;;;6.07;1.73;;;15.80;68.90;;;;;;5013005;28;20039;-80
2023/03/24 10:01:27;;;;;;;4.00;1.77;;;15.80;68.70;;;;;;5028109;28;20049;-81
2023/03/24 10:03:57;;;;;;;5.68;1.92;;;15.80;68.60;;;;;;5033473;28;20325;-80
2023/03/24 10:06:37;;;;;;;10.10;2.13;;;15.90;68.60;;;;;;5030249;28;20048;-78
2023/03/24 10:09:27;;;;;;;13.50;3.75;;;15.90;68.40;;;;;;5032066;28;20555;-80
2023/03/24 10:12:08;;;;;;;10.13;2.28;;;16.10;68.50;;;;;;5015577;28;20579;-81
2023/03/24 10:14:52;;;;;;;5.32;1.80;;;16.40;68.50;;;;;;5025990;28;20072;-78
2023/03/24 10:17:43;;;;;;;7.55;2.22;;;16.70;68.30;;;;;;5029786;28;20037;-79
2023/03/24 10:20:33;;;;;;;7.25;2.45;;;17.10;68.10;;;;;;5019598;28;20048;-77
2023/03/24 10:23:23;;;;;;;9.80;1.95;;;17.40;67.80;;;;;;5006617;28;20274;-78
2023/03/24 10:26:14;;;;;;;6.95;2.35;;;17.60;67.10;;;;;;5009623;28;20136;-78
2023/03/24 10:29:12;;;;;;;7.90;1.92;;;17.90;66.80;;;;;;5007972;28;20045;-78
2023/03/24 10:31:40;;;;;;;2.78;1.50;;;18.10;66.70;;;;;;5010501;28;20087;-78
2023/03/24 10:34:11;;;;;;;5.90;1.70;;;18.30;66.60;;;;;;5020228;28;20037;-77
2023/03/24 10:36:38;;;;;;;7.82;1.55;;;18.30;66.20;;;;;;5031344;28;20064;-78
2023/03/24 10:39:05;;;;;;;5.68;1.42;;;18.40;66.00;;;;;;5016668;28;20037;-79
2023/03/24 10:41:34;;;;;;;5.90;1.73;;;18.50;65.90;;;;;;5010931;28;20046;-79
2023/03/24 10:44:02;;;;;;;6.13;1.48;;;18.50;65.60;;;;;;5024872;28;20484;-77
2023/03/24 10:46:30;;;;;;;5.22;1.60;;;18.50;65.40;;;;;;5032329;28;20131;-80
2023/03/24 10:49:16;;;;;;;6.50;1.67;;;18.40;65.10;;;;;;5016343;28;20461;-78
2023/03/24 10:51:48;;;;;;;5.45;1.95;;;18.40;64.90;;;;;;5002275;28;20041;-79
2023/03/24 10:54:18;;;;;;;4.05;1.52;;;18.30;64.80;;;;;;5010220;28;20177;-82
2023/03/24 10:57:03;;;;;;;2.67;1.50;;;18.40;65.00;;;;;;5028303;28;20332;-80
2023/03/24 10:59:50;;;;;;;5.35;2.10;;;18.40;64.60;;;;;;5021902;28;20115;-79
2023/03/24 11:02:25;;;;;;;4.35;1.52;;;18.40;64.40;;;;;;5040351;28;20037;-77
2023/03/24 11:05:13;;;;;;;7.28;1.75;;;18.40;64.30;;;;;;5027789;28;20076;-80
2023/03/24 11:07:43;;;;;;;4.10;1.35;;;18.50;64.20;;;;;;5022659;28;20084;-79
2023/03/24 11:10:09;;;;;;;4.95;2.15;;;18.50;64.10;;;;;;5009852;28;20029;-78
2023/03/24 11:12:41;;;;;;;4.05;1.65;;;18.50;63.90;;;;;;5014569;28;20444;-79
2023/03/24 11:15:29;;;;;;;4.15;1.20;;;18.50;63.60;;;;;;5008973;28;20312;-79
2023/03/24 11:18:15;;;;;;;6.80;1.30;;;18.50;62.90;;;;;;4992480;28;20061;-79
2023/03/24 11:20:46;;;;;;;7.35;1.33;;;18.60;62.70;;;;;;4982536;28;20911;-79
2023/03/24 11:23:31;;;;;;;6.10;1.23;;;18.70;62.70;;;;;;5018960;28;20917;-79
2023/03/24 11:26:11;;;;;;;5.05;1.35;;;18.70;62.40;;;;;;4985656;28;20040;-78
2023/03/24 11:28:43;;;;;;;;;;;18.70;62.20;;;;;;5010789;28;20032;-78
2023/03/24 11:31:17;;;;;;;5.38;1.55;;;18.70;62.30;;;;;;5019992;28;20015;-80
2023/03/24 11:33:55;;;;;;;5.13;1.42;;;18.60;62.30;;;;;;5010614;28;20393;-79
2023/03/24 11:36:31;;;;;;;4.53;1.30;;;18.60;62.10;;;;;;5031739;28;20037;-79
2023/03/24 11:39:05;;;;;;;4.20;1.35;;;18.50;61.80;;;;;;5013587;28;20215;-80
2023/03/24 11:41:31;;;;;;;4.63;1.60;;;18.50;61.70;;;;;;5012377;28;20041;-79
2023/03/24 11:44:38;;;;;;;4.88;1.40;;;18.60;61.70;;;;;;5010379;28;20048;-77
2023/03/24 11:47:13;;;;;;;6.13;1.50;;;18.60;61.00;;;;;;4936928;28;20202;-79
2023/03/24 11:49:45;;;;;;;6.75;2.30;;;18.70;61.20;;;;;;4976367;28;20571;-79
2023/03/24 11:52:27;;;;;;;5.00;1.45;;;18.80;61.10;;;;;;5019075;28;20045;-81
2023/03/24 11:54:54;;;;;;;6.90;2.17;;;18.90;60.90;;;;;;5030648;28;20036;-78
2023/03/24 11:57:35;;;;;;;8.95;2.50;;;19.00;61.10;;;;;;5024427;28;20087;-78
2023/03/24 12:00:30;;;;;;;12.88;2.50;;;19.00;60.90;;;;;;5042334;28;20048;-78
2023/03/24 12:03:25;;;;;;;8.23;1.83;;;19.10;61.30;;;;;;5017802;28;20087;-78
2023/03/24 12:06:09;;;;;;;5.35;1.88;;;19.30;61.10;;;;;;5013124;28;20037;-79
2023/03/24 12:08:55;;;;;;;12.40;2.60;;;19.50;61.00;;;;;;5047079;28;20089;-78
2023/03/24 12:11:43;;;;;;;6.55;2.83;;;19.60;60.80;;;;;;5032797;28;20033;-79
2023/03/24 12:14:09;;;;;;;7.30;2.28;;;19.80;60.90;;;;;;5028190;28;20057;-78
2023/03/24 12:17:15;;;;;;;8.60;2.75;;;20.00;61.10;;;;;;5013389;28;20551;-79
2023/03/24 12:20:19;;;;;;;9.38;3.50;;;20.30;60.90;;;;;;5026820;28;20250;-80
2023/03/24 12:23:25;;;;;;;8.63;2.95;;;20.60;60.70;;;;;;5014955;28;20123;-80
2023/03/24 12:26:28;;;;;;;7.70;2.10;;;20.80;60.40;;;;;;4990789;28;20125;-80
2023/03/24 12:29:13;;;;;;;;;;;21.20;60.40;;;;;;5000733;28;20033;-79
2023/03/24 12:32:16;;;;;;;7.68;2.75;;;21.40;60.60;;;;;;5000346;28;20422;-79
2023/03/24 12:35:01;;;;;;;8.80;2.45;;;21.50;60.30;;;;;;5015052;28;20390;-78
2023/03/24 12:38:06;;;;;;;6.85;2.38;;;21.40;60.20;;;;;;4998197;28;20029;-77
2023/03/24 12:41:01;;;;;;;7.88;2.30;;;21.30;59.70;;;;;;5021631;28;20499;-80
2023/03/24 12:43:47;;;;;;;11.38;2.85;;;21.00;59.60;;;;;;5025193;28;20040;-78
2023/03/24 12:46:44;;;;;;;5.28;1.70;;;20.80;59.70;;;;;;5023550;28;20056;-77
2023/03/24 12:49:25;;;;;;;7.95;2.80;;;20.50;59.40;;;;;;5011829;28;20437;-79
2023/03/24 12:52:08;;;;;;;7.78;2.28;;;20.40;59.80;;;;;;4986191;28;20052;-78
2023/03/24 12:54:44;;;;;;;8.68;2.72;;;20.30;59.90;;;;;;5007339;28;20470;-77
2023/03/24 12:57:18;;;;;;;4.68;2.33;;;20.20;60.00;;;;;;5001752;28;20319;-77
2023/03/24 13:00:00;;;;;;;7.60;2.92;;;20.10;59.90;;;;;;5024763;28;20037;-79
2023/03/24 13:02:38;;;;;;;7.63;2.55;;;20.10;59.90;;;;;;5005531;28;20083;-79
2023/03/24 13:05:39;;;;;;;8.00;2.67;;;20.10;59.90;;;;;;5023503;28;20041;-79
2023/03/24 13:08:15;;;;;;;13.23;2.88;;;20.10;59.80;;;;;;4971190;28;20042;-79
2023/03/24 13:10:43;;;;;;;6.25;1.88;;;20.00;59.70;;;;;;5003280;28;20029;-78
2023/03/24 13:13:19;;;;;;;7.05;1.65;;;19.90;59.80;;;;;;5017416;28;20516;-78
2023/03/24 13:15:57;;;;;;;7.22;1.88;;;19.90;60.00;;;;;;5021300;28;20024;-77
2023/03/24 13:18:47;;;;;;;8.45;2.40;;;19.90;60.00;;;;;;5011299;28;20451;-78
2023/03/24 13:21:16;;;;;;;9.27;2.45;;;20.10;60.10;;;;;;5020253;28;20021;-77
2023/03/24 13:23:53;;;;;;;8.00;2.00;;;20.40;60.30;;;;;;5020020;28;20516;-77
2023/03/24 13:26:54;;;;;;;6.88;1.95;;;20.70;60.20;;;;;;5020566;28;20181;-77
2023/03/24 13:29:45;;;;;;;13.57;4.28;;;20.90;60.50;;;;;;5020317;28;20037;-78
2023/03/24 13:32:27;;;;;;;6.40;1.92;;;21.10;59.90;;;;;;4990157;28;20393;-78